createdAt,value
2022-11-16T00:00:06.566Z,4.46
2022-11-16T00:03:33.134Z,4.48
2022-11-16T00:06:41.717Z,4.50
2022-11-16T00:09:48.285Z,4.51
2022-11-16T00:12:54.300Z,4.53
2022-11-16T00:16:00.638Z,4.54
2022-11-16T00:19:07.507Z,4.54
2022-11-16T00:22:13.556Z,4.54
2022-11-16T00:25:19.525Z,4.55
2022-11-16T00:28:25.457Z,4.55
2022-11-16T00:31:33.570Z,4.56
2022-11-16T00:34:40.694Z,4.56
2022-11-16T00:37:46.680Z,4.57
2022-11-16T00:40:53.186Z,4.60
2022-11-16T00:43:59.118Z,4.61
2022-11-16T00:47:05.200Z,4.62
2022-11-16T00:50:11.422Z,4.62
2022-11-16T00:53:18.180Z,4.63
2022-11-16T00:56:24.279Z,4.66
2022-11-16T00:59:30.426Z,4.68
2022-11-16T01:02:38.165Z,4.70
2022-11-16T01:05:44.127Z,4.73
2022-11-16T01:08:50.105Z,4.75
2022-11-16T01:12:10.910Z,4.76
2022-11-16T01:15:17.367Z,4.78
2022-11-16T01:18:24.412Z,4.80
2022-11-16T01:21:30.535Z,4.82
2022-11-16T01:24:36.642Z,4.83
2022-11-16T01:27:42.994Z,4.84
2022-11-16T01:30:53.978Z,4.82
2022-11-16T01:34:00.116Z,4.80
2022-11-16T01:37:07.983Z,4.81
2022-11-16T01:40:17.613Z,4.79
2022-11-16T01:43:25.187Z,4.79
2022-11-16T01:46:37.217Z,4.80
2022-11-16T01:49:45.949Z,4.82
2022-11-16T01:52:56.620Z,4.81
2022-11-16T01:56:04.205Z,4.80
2022-11-16T01:59:22.394Z,4.79
2022-11-16T02:02:28.901Z,4.79
2022-11-16T02:05:40.900Z,4.78
2022-11-16T02:09:13.931Z,4.79
2022-11-16T02:12:33.358Z,4.78
2022-11-16T02:15:41.482Z,4.76
2022-11-16T02:19:00.294Z,4.75
2022-11-16T02:22:09.608Z,4.72
2022-11-16T02:25:18.209Z,4.67
2022-11-16T02:28:29.746Z,4.63
2022-11-16T02:31:37.273Z,4.59
2022-11-16T02:34:43.897Z,4.54
2022-11-16T02:37:55.368Z,4.49
2022-11-16T02:41:03.615Z,4.44
2022-11-16T02:44:12.302Z,4.42
2022-11-16T02:47:21.008Z,4.39
2022-11-16T02:50:28.100Z,4.39
2022-11-16T02:53:37.323Z,4.38
2022-11-16T02:56:45.003Z,4.37
2022-11-16T02:59:53.172Z,4.34
2022-11-16T03:03:13.513Z,4.33
2022-11-16T03:06:21.859Z,4.31
2022-11-16T03:09:31.135Z,4.30
2022-11-16T03:12:37.037Z,4.30
2022-11-16T03:15:46.819Z,4.28
2022-11-16T03:18:56.776Z,4.28
2022-11-16T03:22:05.530Z,4.27
2022-11-16T03:25:13.609Z,4.27
2022-11-16T03:28:22.664Z,4.29
2022-11-16T03:31:30.755Z,4.31
2022-11-16T03:34:38.873Z,4.33
2022-11-16T03:37:46.032Z,4.36
2022-11-16T03:40:52.467Z,4.38
2022-11-16T03:43:59.394Z,4.41
2022-11-16T03:47:05.497Z,4.43
2022-11-16T03:50:11.762Z,4.46
2022-11-16T03:53:17.840Z,4.49
2022-11-16T03:56:25.442Z,4.51
2022-11-16T03:59:31.067Z,4.53
2022-11-16T04:02:37.756Z,4.55
2022-11-16T04:06:00.854Z,4.56
2022-11-16T04:09:23.513Z,4.55
2022-11-16T04:12:47.143Z,4.57
2022-11-16T04:16:10.226Z,4.58
2022-11-16T04:19:32.957Z,4.56
2022-11-16T04:22:59.693Z,4.56
2022-11-16T04:26:07.397Z,4.56
2022-11-16T04:29:14.464Z,4.57
2022-11-16T04:32:37.537Z,4.58
2022-11-16T04:36:10.807Z,4.60
2022-11-16T04:39:16.264Z,4.60
2022-11-16T04:42:22.808Z,4.59
2022-11-16T04:45:47.489Z,4.58
2022-11-16T04:48:54.005Z,4.58
2022-11-16T04:51:59.612Z,4.58
2022-11-16T04:55:06.980Z,4.56
2022-11-16T04:58:12.551Z,4.55
2022-11-16T05:01:18.103Z,4.53
2022-11-16T05:04:23.476Z,4.52
2022-11-16T05:07:29.333Z,4.52
2022-11-16T05:10:40.991Z,4.53
2022-11-16T05:13:47.680Z,4.53
2022-11-16T05:16:52.921Z,4.50
2022-11-16T05:20:16.322Z,4.48
2022-11-16T05:23:45.191Z,4.46
2022-11-16T05:26:52.096Z,4.43
2022-11-16T05:29:57.957Z,4.42
2022-11-16T05:33:03.471Z,4.43
2022-11-16T05:36:11.212Z,4.44
2022-11-16T05:39:17.478Z,4.42
2022-11-16T05:42:22.983Z,4.43
2022-11-16T05:45:28.602Z,4.44
2022-11-16T05:48:34.852Z,4.47
2022-11-16T05:51:41.975Z,4.50
2022-11-16T05:54:47.544Z,4.53
2022-11-16T05:57:52.863Z,4.54
2022-11-16T06:00:58.535Z,4.57
2022-11-16T06:04:04.360Z,4.58
2022-11-16T06:07:10.346Z,4.59
2022-11-16T06:10:16.082Z,4.61
2022-11-16T06:13:22.774Z,4.61
2022-11-16T06:16:29.485Z,4.61
2022-11-16T06:19:35.571Z,4.61
2022-11-16T06:22:41.214Z,4.61
2022-11-16T06:25:46.824Z,4.61
2022-11-16T06:28:54.944Z,4.60
2022-11-16T06:32:00.797Z,4.61
2022-11-16T06:35:07.072Z,4.62
2022-11-16T06:38:18.459Z,4.63
2022-11-16T06:41:26.110Z,4.63
2022-11-16T06:44:31.637Z,4.64
2022-11-16T06:47:39.703Z,4.65
2022-11-16T06:50:45.705Z,4.67
2022-11-16T06:53:51.696Z,4.71
2022-11-16T06:56:57.681Z,4.74
2022-11-16T07:00:03.260Z,4.77
2022-11-16T07:03:09.260Z,4.80
2022-11-16T07:06:15.668Z,4.82
2022-11-16T07:09:23.240Z,4.85
2022-11-16T07:12:29.198Z,4.86
2022-11-16T07:15:35.654Z,4.87
2022-11-16T07:18:42.121Z,4.91
2022-11-16T07:21:47.712Z,4.93
2022-11-16T07:24:55.529Z,4.96
2022-11-16T07:28:01.619Z,4.99
2022-11-16T07:31:09.204Z,5.00
2022-11-16T07:34:15.076Z,5.00
2022-11-16T07:37:27.420Z,5.00
2022-11-16T07:40:33.066Z,5.00
2022-11-16T07:43:40.006Z,5.02
2022-11-16T07:46:54.341Z,5.06
2022-11-16T07:49:59.633Z,5.13
2022-11-16T07:53:06.688Z,5.20
2022-11-16T07:56:12.717Z,5.24
2022-11-16T07:59:18.590Z,5.26
2022-11-16T08:02:24.594Z,5.30
2022-11-16T08:05:31.008Z,5.35
2022-11-16T08:08:36.763Z,5.37
2022-11-16T08:11:42.708Z,5.37
2022-11-16T08:14:48.343Z,5.38
2022-11-16T08:17:53.885Z,5.37
2022-11-16T08:21:01.849Z,5.32
2022-11-16T08:24:08.899Z,5.27
2022-11-16T08:27:17.605Z,5.22
2022-11-16T08:30:28.281Z,5.18
2022-11-16T08:33:33.782Z,5.14
2022-11-16T08:36:41.410Z,5.10
2022-11-16T08:39:47.076Z,5.05
2022-11-16T08:42:57.128Z,5.02
2022-11-16T08:46:05.363Z,4.98
2022-11-16T08:49:11.508Z,4.99
2022-11-16T08:52:16.995Z,5.05
2022-11-16T08:55:22.559Z,5.08
2022-11-16T08:58:27.893Z,5.16
2022-11-16T09:01:33.681Z,5.28
2022-11-16T09:04:39.205Z,5.38
2022-11-16T09:07:45.830Z,5.47
2022-11-16T09:10:51.200Z,5.53
2022-11-16T09:13:57.522Z,5.50
2022-11-16T09:17:02.916Z,5.46
2022-11-16T09:20:09.732Z,5.44
2022-11-16T09:23:15.057Z,5.44
2022-11-16T09:26:23.308Z,5.48
2022-11-16T09:29:28.947Z,5.48
2022-11-16T09:32:34.388Z,5.47
2022-11-16T09:35:43.560Z,5.47
2022-11-16T09:42:29.888Z,5.51
2022-11-16T09:45:40.322Z,5.55
2022-11-16T09:48:45.859Z,5.60
2022-11-16T09:51:52.556Z,5.59
2022-11-16T09:55:00.539Z,5.59
2022-11-16T09:58:09.921Z,5.59
2022-11-16T10:01:22.513Z,5.61
2022-11-16T10:04:37.206Z,5.61
2022-11-16T10:07:44.382Z,5.62
2022-11-16T10:10:55.969Z,5.61
2022-11-16T10:14:07.238Z,5.61
2022-11-16T10:17:18.848Z,5.61
2022-11-16T10:20:43.780Z,5.60
2022-11-16T10:23:56.722Z,5.61
2022-11-16T10:27:09.298Z,5.63
2022-11-16T10:30:17.146Z,5.64
2022-11-16T10:33:24.028Z,5.68
2022-11-16T10:36:31.521Z,5.72
2022-11-16T10:39:41.085Z,5.76
2022-11-16T10:42:48.159Z,5.78
2022-11-16T10:45:58.294Z,5.82
2022-11-16T10:49:09.567Z,5.83
2022-11-16T10:52:15.046Z,5.85
2022-11-16T10:55:21.938Z,5.88
2022-11-16T10:58:27.270Z,5.93
2022-11-16T11:01:37.384Z,5.93
2022-11-16T11:05:01.351Z,5.94
2022-11-16T11:08:08.600Z,5.95
2022-11-16T11:11:38.499Z,5.97
2022-11-16T11:15:01.033Z,5.96
2022-11-16T11:18:13.283Z,5.96
2022-11-16T11:21:21.007Z,5.98
2022-11-16T11:27:53.775Z,6.02
2022-11-16T11:31:01.614Z,5.93
2022-11-16T11:34:14.969Z,5.84
2022-11-16T11:37:22.620Z,5.74
2022-11-16T11:40:28.756Z,5.68
2022-11-16T11:43:35.522Z,5.66
2022-11-16T11:47:18.610Z,5.64
2022-11-16T11:50:12.358Z,5.69
2022-11-16T11:53:23.381Z,5.76
2022-11-16T11:56:30.715Z,5.73
2022-11-16T11:59:36.226Z,5.71
2022-11-16T12:02:49.636Z,5.69
2022-11-16T12:06:06.069Z,5.69
2022-11-16T12:09:22.402Z,5.74
2022-11-16T12:12:38.339Z,5.74
2022-11-16T12:15:52.860Z,5.69
2022-11-16T12:19:17.999Z,5.72
2022-11-16T12:22:33.919Z,5.78
2022-11-16T12:25:43.963Z,5.85
2022-11-16T12:28:56.934Z,5.92
2022-11-16T12:32:19.154Z,6.00
2022-11-16T12:35:31.687Z,6.00
2022-11-16T12:38:48.615Z,5.99
2022-11-16T12:42:13.892Z,6.02
2022-11-16T12:45:33.676Z,6.02
2022-11-16T12:48:45.819Z,6.04
2022-11-16T12:51:57.150Z,6.06
2022-11-16T12:55:25.862Z,6.04
2022-11-16T12:58:39.493Z,5.99
2022-11-16T13:01:49.115Z,5.93
2022-11-16T13:04:58.529Z,5.89
2022-11-16T13:08:05.995Z,5.87
2022-11-16T13:11:15.744Z,5.83
2022-11-16T13:14:25.508Z,5.78
2022-11-16T13:17:33.450Z,5.71
2022-11-16T13:20:45.051Z,5.68
2022-11-16T13:23:54.783Z,5.67
2022-11-16T13:27:07.714Z,5.63
2022-11-16T13:30:19.282Z,5.62
2022-11-16T13:33:29.245Z,5.56
2022-11-16T13:36:45.083Z,5.49
2022-11-16T13:40:08.692Z,5.45
2022-11-16T13:43:18.409Z,5.39
2022-11-16T13:46:54.081Z,5.34
2022-11-16T13:49:53.250Z,5.24
2022-11-16T13:56:29.510Z,5.22
2022-11-16T13:59:37.235Z,5.22
2022-11-16T14:02:43.169Z,5.18
2022-11-16T14:05:49.520Z,5.13
2022-11-16T14:08:55.647Z,5.09
2022-11-16T14:12:20.981Z,5.05
2022-11-16T14:15:28.593Z,5.03
2022-11-16T14:18:37.297Z,5.02
2022-11-16T14:21:48.903Z,5.00
2022-11-16T14:24:58.677Z,4.98
2022-11-16T14:28:14.567Z,4.98
2022-11-16T14:31:23.025Z,5.00
2022-11-16T14:34:31.655Z,4.99
2022-11-16T14:37:39.911Z,4.97
2022-11-16T14:40:47.257Z,4.93
2022-11-16T14:43:55.132Z,4.90
2022-11-16T14:47:00.701Z,4.88
2022-11-16T14:50:18.315Z,4.84
2022-11-16T14:53:27.256Z,4.80
2022-11-16T14:56:32.872Z,4.73
2022-11-16T14:59:38.446Z,4.71
2022-11-16T15:02:51.040Z,4.70
2022-11-16T15:05:59.836Z,4.66
2022-11-16T15:09:05.915Z,4.62
2022-11-16T15:12:32.976Z,4.60
2022-11-16T15:15:38.761Z,4.58
2022-11-16T15:18:56.303Z,4.56
2022-11-16T15:22:02.737Z,4.55
2022-11-16T15:25:24.899Z,4.52
2022-11-16T15:28:31.793Z,4.46
2022-11-16T15:31:38.485Z,4.42
2022-11-16T15:34:44.336Z,4.36
2022-11-16T15:37:52.218Z,4.33
2022-11-16T15:40:58.798Z,4.29
2022-11-16T15:44:14.655Z,4.25
2022-11-16T15:47:22.807Z,4.21
2022-11-16T15:50:29.153Z,4.18
2022-11-16T15:53:36.875Z,4.15
2022-11-16T15:56:43.646Z,4.14
2022-11-16T15:59:50.642Z,4.11
2022-11-16T16:02:56.620Z,4.06
2022-11-16T16:06:02.542Z,4.00
2022-11-16T16:09:08.011Z,3.97
2022-11-16T16:12:20.175Z,3.94
2022-11-16T16:15:27.009Z,3.92
2022-11-16T16:18:41.627Z,3.92
2022-11-16T16:21:52.464Z,3.91
2022-11-16T16:24:58.414Z,3.90
2022-11-16T16:28:04.055Z,3.88
2022-11-16T16:31:10.099Z,3.85
2022-11-16T16:34:17.974Z,3.83
2022-11-16T16:37:23.782Z,3.82
2022-11-16T16:40:29.436Z,3.80
2022-11-16T16:43:35.799Z,3.75
2022-11-16T16:46:41.325Z,3.71
2022-11-16T16:49:46.873Z,3.70
2022-11-16T16:52:52.209Z,3.66
2022-11-16T16:56:00.359Z,3.62
2022-11-16T16:59:06.026Z,3.58
2022-11-16T17:02:12.585Z,3.53
2022-11-16T17:05:18.283Z,3.48
2022-11-16T17:08:23.797Z,3.46
2022-11-16T17:11:29.938Z,3.45
2022-11-16T17:14:35.610Z,3.43
2022-11-16T17:17:42.949Z,3.42
2022-11-16T17:20:48.326Z,3.39
2022-11-16T17:23:53.709Z,3.34
2022-11-16T17:26:59.181Z,3.33
2022-11-16T17:30:05.200Z,3.31
2022-11-16T17:33:10.473Z,3.29
2022-11-16T17:36:16.376Z,3.27
2022-11-16T17:39:22.585Z,3.24
2022-11-16T17:42:28.661Z,3.21
2022-11-16T17:45:34.084Z,3.20
2022-11-16T17:48:40.478Z,3.18
2022-11-16T17:51:46.056Z,3.17
2022-11-16T17:54:51.377Z,3.15
2022-11-16T17:57:58.591Z,3.11
2022-11-16T18:01:04.036Z,3.08
2022-11-16T18:04:09.436Z,3.05
2022-11-16T18:07:14.829Z,3.02
2022-11-16T18:10:20.343Z,2.99
2022-11-16T18:13:25.882Z,2.96
2022-11-16T18:16:32.251Z,2.96
2022-11-16T18:19:37.828Z,2.96
2022-11-16T18:22:43.345Z,2.94
2022-11-16T18:25:48.982Z,2.92
2022-11-16T18:28:54.385Z,2.92
2022-11-16T18:31:59.803Z,2.91
2022-11-16T18:35:10.029Z,2.89
2022-11-16T18:38:15.412Z,2.89
2022-11-16T18:41:21.895Z,2.88
2022-11-16T18:44:27.305Z,2.86
2022-11-16T18:47:32.717Z,2.84
2022-11-16T18:50:38.272Z,2.83
2022-11-16T18:53:46.439Z,2.82
2022-11-16T18:56:51.877Z,2.80
2022-11-16T18:59:57.321Z,2.78
2022-11-16T19:03:05.761Z,2.73
2022-11-16T19:06:15.034Z,2.68
2022-11-16T19:09:20.645Z,2.61
2022-11-16T19:12:26.169Z,2.57
2022-11-16T19:15:31.747Z,2.54
2022-11-16T19:18:37.885Z,2.49
2022-11-16T19:21:43.428Z,2.46
2022-11-16T19:24:48.830Z,2.43
2022-11-16T19:27:54.119Z,2.36
2022-11-16T19:30:59.831Z,2.27
2022-11-16T19:34:06.223Z,2.20
2022-11-16T19:37:11.840Z,2.14
2022-11-16T19:40:22.197Z,2.07
2022-11-16T19:43:30.163Z,2.02
2022-11-16T19:46:38.194Z,2.00
2022-11-16T19:49:43.636Z,1.97
2022-11-16T19:52:49.005Z,1.96
2022-11-16T19:55:57.426Z,1.94
2022-11-16T19:59:02.709Z,1.93
2022-11-16T20:02:10.360Z,1.92
2022-11-16T20:05:16.381Z,1.91
2022-11-16T20:08:21.793Z,1.91
2022-11-16T20:11:27.911Z,1.93
2022-11-16T20:14:33.389Z,1.94
2022-11-16T20:17:39.025Z,1.94
2022-11-16T20:20:44.786Z,1.92
2022-11-16T20:23:51.743Z,1.91
2022-11-16T20:26:57.090Z,1.90
2022-11-16T20:30:08.009Z,1.87
2022-11-16T20:33:15.540Z,1.84
2022-11-16T20:36:22.884Z,1.83
2022-11-16T20:39:28.403Z,1.83
2022-11-16T20:42:34.068Z,1.83
2022-11-16T20:45:39.747Z,1.84
2022-11-16T20:48:45.641Z,1.83
2022-11-16T20:51:51.761Z,1.83
2022-11-16T20:55:00.148Z,1.85
2022-11-16T20:58:05.626Z,1.84
2022-11-16T21:01:13.243Z,1.82
2022-11-16T21:04:21.627Z,1.82
2022-11-16T21:07:27.063Z,1.82
2022-11-16T21:10:35.417Z,1.81
2022-11-16T21:13:58.676Z,1.81
2022-11-16T21:17:04.555Z,1.81
2022-11-16T21:20:28.363Z,1.80
2022-11-16T21:23:39.105Z,1.77
2022-11-16T21:26:44.490Z,1.77
2022-11-16T21:29:49.652Z,1.78
2022-11-16T21:32:54.899Z,1.78
2022-11-16T21:36:03.522Z,1.77
2022-11-16T21:39:09.088Z,1.77
2022-11-16T21:42:14.443Z,1.78
2022-11-16T21:45:19.768Z,1.80
2022-11-16T21:48:25.174Z,1.82
2022-11-16T21:51:30.816Z,1.81
2022-11-16T21:54:48.565Z,1.82
2022-11-16T21:57:53.850Z,1.83
2022-11-16T22:00:59.933Z,1.84
2022-11-16T22:04:22.995Z,1.85
2022-11-16T22:07:34.492Z,1.87
2022-11-16T22:10:39.827Z,1.88
2022-11-16T22:13:45.652Z,1.89
2022-11-16T22:16:51.686Z,1.90
2022-11-16T22:19:57.764Z,1.92
2022-11-16T22:23:03.609Z,1.94
2022-11-16T22:26:10.640Z,1.95
2022-11-16T22:29:16.507Z,1.95
2022-11-16T22:32:22.279Z,1.95
2022-11-16T22:35:31.036Z,1.96
2022-11-16T22:38:39.296Z,1.98
2022-11-16T22:41:45.216Z,1.98
2022-11-16T22:44:51.187Z,1.99
2022-11-16T22:47:57.200Z,2.00
2022-11-16T22:51:13.577Z,2.00
2022-11-16T22:54:22.199Z,2.00
2022-11-16T22:57:30.543Z,2.02
2022-11-16T23:00:41.780Z,2.05
2022-11-16T23:03:48.718Z,2.07
2022-11-16T23:06:54.868Z,2.06
2022-11-16T23:10:00.940Z,2.07
2022-11-16T23:13:24.383Z,2.09
2022-11-16T23:16:30.401Z,2.12
2022-11-16T23:19:53.905Z,2.14
2022-11-16T23:23:17.482Z,2.13
2022-11-16T23:26:42.284Z,2.12
2022-11-16T23:29:48.548Z,2.12
2022-11-16T23:32:54.473Z,2.12
2022-11-16T23:36:00.313Z,2.14
2022-11-16T23:39:06.862Z,2.15
2022-11-16T23:42:30.266Z,2.16
2022-11-16T23:45:36.235Z,2.16
2022-11-16T23:48:42.213Z,2.15
2022-11-16T23:51:47.986Z,2.16
2022-11-16T23:54:53.883Z,2.17
2022-11-16T23:57:59.718Z,2.18
